sensor_id;sensor_type;location;lat;lon;timestamp;pressure;altitude;pressure_sealevel;temperature;humidity
50268;BME280;36153;50.960;6.220;2022-09-01T00:01:12;100974.06;;;21.23;47.83
50268;BME280;36153;50.960;6.220;2022-09-01T00:04:22;100969.66;;;21.22;47.95
50268;BME280;36153;50.960;6.220;2022-09-01T00:07:27;100976.72;;;21.23;47.78
50268;BME280;36153;50.960;6.220;2022-09-01T00:10:31;100971.59;;;21.17;48.04
50268;BME280;36153;50.960;6.220;2022-09-01T00:13:31;100968.97;;;21.16;48.12
50268;BME280;36153;50.960;6.220;2022-09-01T00:16:33;100968.34;;;21.04;48.34
50268;BME280;36153;50.960;6.220;2022-09-01T00:19:33;100978.09;;;21.04;48.18
50268;BME280;36153;50.960;6.220;2022-09-01T00:22:35;100976.41;;;21.00;48.56
50268;BME280;36153;50.960;6.220;2022-09-01T00:25:36;100974.63;;;21.02;48.18
50268;BME280;36153;50.960;6.220;2022-09-01T00:28:37;100980.66;;;21.07;47.97
50268;BME280;36153;50.960;6.220;2022-09-01T00:31:38;100977.13;;;21.06;47.93
50268;BME280;36153;50.960;6.220;2022-09-01T00:34:39;100976.38;;;21.01;47.92
50268;BME280;36153;50.960;6.220;2022-09-01T00:37:39;100969.53;;;20.92;48.35
50268;BME280;36153;50.960;6.220;2022-09-01T00:40:40;100981.19;;;20.85;48.50
50268;BME280;36153;50.960;6.220;2022-09-01T00:43:46;100976.94;;;20.78;48.89
50268;BME280;36153;50.960;6.220;2022-09-01T00:46:49;100978.00;;;20.69;49.05
50268;BME280;36153;50.960;6.220;2022-09-01T00:49:50;100973.53;;;20.73;49.09
50268;BME280;36153;50.960;6.220;2022-09-01T00:52:53;100975.69;;;20.54;49.67
50268;BME280;36153;50.960;6.220;2022-09-01T00:55:54;100972.06;;;20.58;49.47
50268;BME280;36153;50.960;6.220;2022-09-01T00:58:55;100980.59;;;20.71;49.12
50268;BME280;36153;50.960;6.220;2022-09-01T01:01:56;100978.03;;;20.68;49.08
50268;BME280;36153;50.960;6.220;2022-09-01T01:04:57;100973.63;;;20.67;48.95
50268;BME280;36153;50.960;6.220;2022-09-01T01:08:01;100968.56;;;20.57;49.43
50268;BME280;36153;50.960;6.220;2022-09-01T01:11:05;100970.34;;;20.55;49.60
50268;BME280;36153;50.960;6.220;2022-09-01T01:14:08;100972.38;;;20.44;49.61
50268;BME280;36153;50.960;6.220;2022-09-01T01:17:11;100969.53;;;20.53;49.71
50268;BME280;36153;50.960;6.220;2022-09-01T01:20:14;100970.50;;;20.49;49.97
50268;BME280;36153;50.960;6.220;2022-09-01T01:23:41;100967.75;;;20.54;50.02
50268;BME280;36153;50.960;6.220;2022-09-01T01:26:45;100961.44;;;20.59;49.70
50268;BME280;36153;50.960;6.220;2022-09-01T01:29:47;100961.44;;;20.59;49.87
50268;BME280;36153;50.960;6.220;2022-09-01T01:32:47;100956.06;;;20.62;49.62
50268;BME280;36153;50.960;6.220;2022-09-01T01:35:49;100959.72;;;20.57;49.59
50268;BME280;36153;50.960;6.220;2022-09-01T01:38:50;100952.38;;;20.32;50.04
50268;BME280;36153;50.960;6.220;2022-09-01T01:41:53;100961.59;;;20.12;50.83
50268;BME280;36153;50.960;6.220;2022-09-01T01:44:53;100976.25;;;19.84;51.75
50268;BME280;36153;50.960;6.220;2022-09-01T01:47:54;100972.88;;;19.75;52.39
50268;BME280;36153;50.960;6.220;2022-09-01T01:50:55;100975.44;;;19.80;52.23
50268;BME280;36153;50.960;6.220;2022-09-01T01:53:58;100972.72;;;19.85;52.32
50268;BME280;36153;50.960;6.220;2022-09-01T01:57:04;100978.81;;;19.88;52.08
50268;BME280;36153;50.960;6.220;2022-09-01T02:00:05;100982.31;;;19.90;51.70
50268;BME280;36153;50.960;6.220;2022-09-01T02:03:06;100987.34;;;20.01;51.19
50268;BME280;36153;50.960;6.220;2022-09-01T02:06:09;100983.94;;;19.96;51.42
50268;BME280;36153;50.960;6.220;2022-09-01T02:09:12;100981.09;;;20.05;50.83
50268;BME280;36153;50.960;6.220;2022-09-01T02:12:12;100982.84;;;20.06;50.76
50268;BME280;36153;50.960;6.220;2022-09-01T02:15:13;100981.94;;;20.09;50.73
50268;BME280;36153;50.960;6.220;2022-09-01T02:18:18;100979.13;;;20.17;50.46
50268;BME280;36153;50.960;6.220;2022-09-01T02:21:22;100980.94;;;20.15;50.43
50268;BME280;36153;50.960;6.220;2022-09-01T02:24:23;100973.28;;;20.01;50.62
50268;BME280;36153;50.960;6.220;2022-09-01T02:27:23;100979.41;;;20.01;50.72
50268;BME280;36153;50.960;6.220;2022-09-01T02:30:26;100975.16;;;19.94;50.95
50268;BME280;36153;50.960;6.220;2022-09-01T02:33:26;100980.66;;;19.83;51.01
50268;BME280;36153;50.960;6.220;2022-09-01T02:36:27;100968.63;;;19.67;51.44
50268;BME280;36153;50.960;6.220;2022-09-01T02:39:29;100966.84;;;19.67;51.78
50268;BME280;36153;50.960;6.220;2022-09-01T02:42:32;100963.50;;;19.57;51.58
50268;BME280;36153;50.960;6.220;2022-09-01T02:45:32;100968.94;;;19.48;52.17
50268;BME280;36153;50.960;6.220;2022-09-01T02:48:36;100976.19;;;19.37;52.41
50268;BME280;36153;50.960;6.220;2022-09-01T02:51:36;100973.78;;;19.23;52.59
50268;BME280;36153;50.960;6.220;2022-09-01T02:54:37;100969.53;;;19.14;53.05
50268;BME280;36153;50.960;6.220;2022-09-01T02:57:38;100967.94;;;19.04;53.42
50268;BME280;36153;50.960;6.220;2022-09-01T03:00:38;100969.66;;;19.06;53.34
50268;BME280;36153;50.960;6.220;2022-09-01T03:03:39;100972.44;;;18.99;53.34
50268;BME280;36153;50.960;6.220;2022-09-01T03:06:40;100970.75;;;18.95;53.59
50268;BME280;36153;50.960;6.220;2022-09-01T03:09:40;100976.13;;;18.85;53.89
50268;BME280;36153;50.960;6.220;2022-09-01T03:12:42;100967.59;;;18.68;53.74
50268;BME280;36153;50.960;6.220;2022-09-01T03:15:43;100965.81;;;18.68;54.42
50268;BME280;36153;50.960;6.220;2022-09-01T03:18:43;100958.00;;;18.64;54.91
50268;BME280;36153;50.960;6.220;2022-09-01T03:21:45;100964.03;;;18.72;54.48
50268;BME280;36153;50.960;6.220;2022-09-01T03:24:46;100966.56;;;18.78;54.46
50268;BME280;36153;50.960;6.220;2022-09-01T03:27:46;100971.94;;;18.72;54.23
50268;BME280;36153;50.960;6.220;2022-09-01T03:30:49;100968.34;;;18.76;54.27
50268;BME280;36153;50.960;6.220;2022-09-01T03:33:50;100971.94;;;18.72;54.38
50268;BME280;36153;50.960;6.220;2022-09-01T03:36:51;100971.97;;;18.69;54.59
50268;BME280;36153;50.960;6.220;2022-09-01T03:39:51;100971.91;;;18.73;54.48
50268;BME280;36153;50.960;6.220;2022-09-01T03:42:52;100976.22;;;18.79;54.29
50268;BME280;36153;50.960;6.220;2022-09-01T03:45:56;100973.63;;;18.74;54.40
50268;BME280;36153;50.960;6.220;2022-09-01T03:48:59;100969.31;;;18.72;54.18
50268;BME280;36153;50.960;6.220;2022-09-01T03:52:05;100973.66;;;18.73;54.27
50268;BME280;36153;50.960;6.220;2022-09-01T03:55:08;100970.13;;;18.74;54.22
50268;BME280;36153;50.960;6.220;2022-09-01T03:58:09;100968.44;;;18.70;54.07
50268;BME280;36153;50.960;6.220;2022-09-01T04:01:10;100965.16;;;18.52;54.20
50268;BME280;36153;50.960;6.220;2022-09-01T04:04:12;100958.19;;;18.48;54.73
50268;BME280;36153;50.960;6.220;2022-09-01T04:07:12;100960.72;;;18.56;54.47
50268;BME280;36153;50.960;6.220;2022-09-01T04:10:14;100962.59;;;18.48;54.51
50268;BME280;36153;50.960;6.220;2022-09-01T04:13:24;100966.16;;;18.45;54.63
50268;BME280;36153;50.960;6.220;2022-09-01T04:16:31;100966.13;;;18.47;54.59
50268;BME280;36153;50.960;6.220;2022-09-01T04:19:51;100964.31;;;18.52;54.68
50268;BME280;36153;50.960;6.220;2022-09-01T04:22:51;100961.63;;;18.53;54.46
50268;BME280;36153;50.960;6.220;2022-09-01T04:25:56;100962.56;;;18.51;54.68
50268;BME280;36153;50.960;6.220;2022-09-01T04:28:56;100959.88;;;18.52;54.59
50268;BME280;36153;50.960;6.220;2022-09-01T04:32:00;100964.22;;;18.56;54.24
50268;BME280;36153;50.960;6.220;2022-09-01T04:35:06;100969.56;;;18.52;54.55
50268;BME280;36153;50.960;6.220;2022-09-01T04:38:07;100968.72;;;18.48;54.41
50268;BME280;36153;50.960;6.220;2022-09-01T04:41:07;100973.09;;;18.51;54.22
50268;BME280;36153;50.960;6.220;2022-09-01T04:44:08;100966.19;;;18.42;54.35
50268;BME280;36153;50.960;6.220;2022-09-01T04:47:08;100971.56;;;18.36;54.24
50268;BME280;36153;50.960;6.220;2022-09-01T04:50:11;100966.41;;;18.27;54.49
50268;BME280;36153;50.960;6.220;2022-09-01T04:53:16;100964.66;;;18.24;54.45
50268;BME280;36153;50.960;6.220;2022-09-01T04:56:18;100970.19;;;18.04;54.96
50268;BME280;36153;50.960;6.220;2022-09-01T04:59:22;100960.66;;;17.94;55.54
50268;BME280;36153;50.960;6.220;2022-09-01T05:02:23;100977.34;;;17.94;55.68
50268;BME280;36153;50.960;6.220;2022-09-01T05:05:26;100979.88;;;18.00;55.36
50268;BME280;36153;50.960;6.220;2022-09-01T05:08:26;100976.44;;;17.94;55.71
50268;BME280;36153;50.960;6.220;2022-09-01T05:11:27;100976.44;;;17.95;55.95
50268;BME280;36153;50.960;6.220;2022-09-01T05:14:28;100977.22;;;18.02;55.83
50268;BME280;36153;50.960;6.220;2022-09-01T05:17:28;100974.53;;;18.08;55.70
50268;BME280;36153;50.960;6.220;2022-09-01T05:20:29;100976.06;;;18.24;55.54
50268;BME280;36153;50.960;6.220;2022-09-01T05:23:31;100972.50;;;18.32;55.48
50268;BME280;36153;50.960;6.220;2022-09-01T05:26:32;100983.81;;;18.40;55.37
50268;BME280;36153;50.960;6.220;2022-09-01T05:29:33;100988.09;;;18.47;55.35
50268;BME280;36153;50.960;6.220;2022-09-01T05:32:37;100985.28;;;18.61;55.12
50268;BME280;36153;50.960;6.220;2022-09-01T05:35:39;100980.63;;;18.77;54.74
50268;BME280;36153;50.960;6.220;2022-09-01T05:38:44;100976.13;;;18.85;54.80
50268;BME280;36153;50.960;6.220;2022-09-01T05:41:44;100979.47;;;18.98;54.45
50268;BME280;36153;50.960;6.220;2022-09-01T05:44:45;100981.06;;;19.08;54.18
50268;BME280;36153;50.960;6.220;2022-09-01T05:47:47;100986.19;;;19.19;53.88
50268;BME280;36153;50.960;6.220;2022-09-01T05:50:49;100987.84;;;19.25;53.76
50268;BME280;36153;50.960;6.220;2022-09-01T05:53:50;100992.03;;;19.37;53.44
50268;BME280;36153;50.960;6.220;2022-09-01T05:56:52;100998.09;;;19.43;53.51
50268;BME280;36153;50.960;6.220;2022-09-01T05:59:53;100990.88;;;19.53;53.16
50268;BME280;36153;50.960;6.220;2022-09-01T06:02:53;100996.72;;;19.71;52.90
50268;BME280;36153;50.960;6.220;2022-09-01T06:06:04;100989.34;;;19.90;52.26
50268;BME280;36153;50.960;6.220;2022-09-01T06:09:08;100996.97;;;20.05;52.05
50268;BME280;36153;50.960;6.220;2022-09-01T06:12:10;100998.56;;;20.14;52.08
50268;BME280;36153;50.960;6.220;2022-09-01T06:15:17;100995.78;;;20.20;52.14
50268;BME280;36153;50.960;6.220;2022-09-01T06:18:19;100999.94;;;20.34;52.38
50268;BME280;36153;50.960;6.220;2022-09-01T06:21:21;100997.03;;;20.44;51.84
50268;BME280;36153;50.960;6.220;2022-09-01T06:24:21;101002.94;;;20.57;52.07
50268;BME280;36153;50.960;6.220;2022-09-01T06:27:22;100999.91;;;20.76;51.65
50268;BME280;36153;50.960;6.220;2022-09-01T06:30:23;100996.19;;;20.83;51.33
50268;BME280;36153;50.960;6.220;2022-09-01T06:33:25;100999.47;;;20.96;51.70
50268;BME280;36153;50.960;6.220;2022-09-01T06:36:26;100999.84;;;21.15;51.40
50268;BME280;36153;50.960;6.220;2022-09-01T06:39:27;101007.50;;;21.27;50.96
50268;BME280;36153;50.960;6.220;2022-09-01T06:42:28;101008.00;;;21.42;50.92
50268;BME280;36153;50.960;6.220;2022-09-01T06:45:28;101011.13;;;21.59;50.57
50268;BME280;36153;50.960;6.220;2022-09-01T06:48:28;101007.22;;;21.74;50.27
50268;BME280;36153;50.960;6.220;2022-09-01T06:51:29;101013.91;;;21.88;50.56
50268;BME280;36153;50.960;6.220;2022-09-01T06:54:31;101013.47;;;22.03;49.59
50268;BME280;36153;50.960;6.220;2022-09-01T06:57:34;101012.47;;;22.09;49.04
50268;BME280;36153;50.960;6.220;2022-09-01T07:00:35;101009.38;;;22.24;49.16
50268;BME280;36153;50.960;6.220;2022-09-01T07:03:41;101011.06;;;22.27;47.73
50268;BME280;36153;50.960;6.220;2022-09-01T07:06:42;101017.22;;;22.27;48.60
50268;BME280;36153;50.960;6.220;2022-09-01T07:09:43;101015.06;;;22.42;47.50
50268;BME280;36153;50.960;6.220;2022-09-01T07:12:43;101016.53;;;22.52;46.99
50268;BME280;36153;50.960;6.220;2022-09-01T07:15:45;101013.63;;;22.60;47.50
50268;BME280;36153;50.960;6.220;2022-09-01T07:18:49;101020.84;;;22.84;47.14
50268;BME280;36153;50.960;6.220;2022-09-01T07:21:51;101018.97;;;22.88;46.37
50268;BME280;36153;50.960;6.220;2022-09-01T07:24:51;101018.88;;;22.91;46.22
50268;BME280;36153;50.960;6.220;2022-09-01T07:27:56;101013.63;;;23.18;46.52
50268;BME280;36153;50.960;6.220;2022-09-01T07:31:00;101016.03;;;23.26;46.02
50268;BME280;36153;50.960;6.220;2022-09-01T07:34:05;101021.31;;;23.52;45.08
50268;BME280;36153;50.960;6.220;2022-09-01T07:37:07;101021.88;;;23.62;45.21
50268;BME280;36153;50.960;6.220;2022-09-01T07:40:10;101020.66;;;23.71;44.58
50268;BME280;36153;50.960;6.220;2022-09-01T07:43:20;101020.19;;;23.85;44.07
50268;BME280;36153;50.960;6.220;2022-09-01T07:46:23;101017.63;;;23.82;43.85
50268;BME280;36153;50.960;6.220;2022-09-01T07:49:24;101018.69;;;24.03;43.69
50268;BME280;36153;50.960;6.220;2022-09-01T07:52:25;101022.97;;;24.07;42.71
50268;BME280;36153;50.960;6.220;2022-09-01T07:55:26;101019.84;;;24.19;42.58
50268;BME280;36153;50.960;6.220;2022-09-01T07:58:28;101019.91;;;24.18;41.28
50268;BME280;36153;50.960;6.220;2022-09-01T08:01:29;101017.59;;;24.32;41.69
50268;BME280;36153;50.960;6.220;2022-09-01T08:04:29;101020.66;;;24.45;42.46
50268;BME280;36153;50.960;6.220;2022-09-01T08:07:30;101025.63;;;24.54;40.44
50268;BME280;36153;50.960;6.220;2022-09-01T08:10:31;101031.31;;;24.69;40.07
50268;BME280;36153;50.960;6.220;2022-09-01T08:13:36;101030.53;;;24.89;40.98
50268;BME280;36153;50.960;6.220;2022-09-01T08:16:39;101033.06;;;24.92;39.94
50268;BME280;36153;50.960;6.220;2022-09-01T08:19:40;101039.25;;;24.93;40.14
50268;BME280;36153;50.960;6.220;2022-09-01T08:22:42;101034.88;;;25.14;40.01
50268;BME280;36153;50.960;6.220;2022-09-01T08:25:44;101025.81;;;25.18;39.19
50268;BME280;36153;50.960;6.220;2022-09-01T08:28:44;101028.50;;;25.40;39.23
50268;BME280;36153;50.960;6.220;2022-09-01T08:31:45;101024.63;;;25.47;39.14
50268;BME280;36153;50.960;6.220;2022-09-01T08:34:46;101030.69;;;25.51;38.29
50268;BME280;36153;50.960;6.220;2022-09-01T08:37:46;101020.75;;;25.96;38.48
50268;BME280;36153;50.960;6.220;2022-09-01T08:40:53;101028.47;;;26.22;37.66
50268;BME280;36153;50.960;6.220;2022-09-01T08:44:05;101025.00;;;26.20;37.23
50268;BME280;36153;50.960;6.220;2022-09-01T08:47:11;101024.16;;;26.39;37.34
50268;BME280;36153;50.960;6.220;2022-09-01T08:50:14;101019.25;;;26.49;36.65
50268;BME280;36153;50.960;6.220;2022-09-01T08:53:41;101018.63;;;26.63;36.73
50268;BME280;36153;50.960;6.220;2022-09-01T08:56:43;101014.16;;;26.82;37.04
50268;BME280;36153;50.960;6.220;2022-09-01T08:59:44;101017.91;;;27.15;36.24
50268;BME280;36153;50.960;6.220;2022-09-01T09:09:36;101027.88;;;27.48;35.00
50268;BME280;36153;50.960;6.220;2022-09-01T09:16:21;101017.78;;;27.53;35.46
50268;BME280;36153;50.960;6.220;2022-09-01T09:19:27;101018.03;;;27.48;34.91
50268;BME280;36153;50.960;6.220;2022-09-01T09:22:28;101013.53;;;27.66;34.28
50268;BME280;36153;50.960;6.220;2022-09-01T09:25:29;101008.78;;;27.89;35.09
50268;BME280;36153;50.960;6.220;2022-09-01T09:28:30;101006.41;;;28.00;34.25
50268;BME280;36153;50.960;6.220;2022-09-01T09:31:36;101006.88;;;28.08;34.41
50268;BME280;36153;50.960;6.220;2022-09-01T09:34:42;100990.09;;;28.38;34.67
50268;BME280;36153;50.960;6.220;2022-09-01T09:37:43;100995.72;;;28.34;33.58
50268;BME280;36153;50.960;6.220;2022-09-01T09:47:05;100987.44;;;28.05;31.73
50268;BME280;36153;50.960;6.220;2022-09-01T09:50:16;100986.66;;;28.03;30.47
50268;BME280;36153;50.960;6.220;2022-09-01T09:56:22;100976.00;;;28.19;31.03
50268;BME280;36153;50.960;6.220;2022-09-01T09:59:30;100984.00;;;28.99;29.77
50268;BME280;36153;50.960;6.220;2022-09-01T10:02:42;100972.38;;;29.14;28.80
50268;BME280;36153;50.960;6.220;2022-09-01T10:05:48;100968.25;;;29.08;28.92
50268;BME280;36153;50.960;6.220;2022-09-01T10:08:51;100978.00;;;28.95;29.67
50268;BME280;36153;50.960;6.220;2022-09-01T10:11:54;100965.28;;;29.29;28.83
50268;BME280;36153;50.960;6.220;2022-09-01T10:15:00;100968.78;;;29.60;28.71
50268;BME280;36153;50.960;6.220;2022-09-01T10:18:08;100967.69;;;29.93;27.50
50268;BME280;36153;50.960;6.220;2022-09-01T10:21:26;100964.31;;;30.18;27.34
50268;BME280;36153;50.960;6.220;2022-09-01T10:24:34;100953.25;;;30.37;26.96
50268;BME280;36153;50.960;6.220;2022-09-01T10:27:39;100953.84;;;30.28;27.59
50268;BME280;36153;50.960;6.220;2022-09-01T10:30:43;100957.94;;;30.48;27.51
50268;BME280;36153;50.960;6.220;2022-09-01T10:33:45;100947.03;;;30.51;27.81
50268;BME280;36153;50.960;6.220;2022-09-01T10:36:47;100954.69;;;30.70;25.88
50268;BME280;36153;50.960;6.220;2022-09-01T10:40:11;100955.06;;;30.78;26.76
50268;BME280;36153;50.960;6.220;2022-09-01T10:43:44;100939.06;;;30.90;26.71
50268;BME280;36153;50.960;6.220;2022-09-01T10:46:48;100944.78;;;31.12;25.76
50268;BME280;36153;50.960;6.220;2022-09-01T10:52:59;100929.47;;;31.13;24.51
50268;BME280;36153;50.960;6.220;2022-09-01T10:56:36;100936.34;;;31.04;25.12
50268;BME280;36153;50.960;6.220;2022-09-01T10:59:37;100925.63;;;31.30;23.37
50268;BME280;36153;50.960;6.220;2022-09-01T11:02:39;100926.94;;;31.76;24.27
50268;BME280;36153;50.960;6.220;2022-09-01T11:09:04;100918.19;;;31.98;22.90
50268;BME280;36153;50.960;6.220;2022-09-01T11:18:26;100917.78;;;31.78;22.29
50268;BME280;36153;50.960;6.220;2022-09-01T11:21:29;100908.22;;;31.74;22.16
50268;BME280;36153;50.960;6.220;2022-09-01T11:34:20;100906.91;;;32.30;22.15
50268;BME280;36153;50.960;6.220;2022-09-01T11:37:23;100909.97;;;32.12;22.26
50268;BME280;36153;50.960;6.220;2022-09-01T11:40:30;100904.88;;;32.33;22.91
50268;BME280;36153;50.960;6.220;2022-09-01T11:43:31;100901.03;;;32.49;21.63
50268;BME280;36153;50.960;6.220;2022-09-01T11:46:33;100903.22;;;32.68;21.49
50268;BME280;36153;50.960;6.220;2022-09-01T11:49:44;100898.06;;;31.91;21.76
50268;BME280;36153;50.960;6.220;2022-09-01T11:56:23;100897.03;;;31.29;23.95
50268;BME280;36153;50.960;6.220;2022-09-01T11:59:33;100893.91;;;32.11;21.99
50268;BME280;36153;50.960;6.220;2022-09-01T12:02:35;100892.59;;;31.54;23.00
50268;BME280;36153;50.960;6.220;2022-09-01T12:05:41;100896.56;;;30.69;23.85
50268;BME280;36153;50.960;6.220;2022-09-01T12:08:50;100880.44;;;31.35;23.58
50268;BME280;36153;50.960;6.220;2022-09-01T12:11:51;100897.59;;;31.60;22.80
50268;BME280;36153;50.960;6.220;2022-09-01T12:15:24;100887.59;;;30.96;23.33
50268;BME280;36153;50.960;6.220;2022-09-01T12:18:34;100890.56;;;30.24;24.02
50268;BME280;36153;50.960;6.220;2022-09-01T12:21:41;100885.97;;;30.26;24.58
50268;BME280;36153;50.960;6.220;2022-09-01T12:24:50;100869.47;;;31.77;22.91
50268;BME280;36153;50.960;6.220;2022-09-01T12:27:52;100866.84;;;32.49;22.08
50268;BME280;36153;50.960;6.220;2022-09-01T12:30:53;100871.03;;;33.25;21.09
50268;BME280;36153;50.960;6.220;2022-09-01T12:33:55;100866.88;;;33.89;20.57
50268;BME280;36153;50.960;6.220;2022-09-01T12:40:24;100862.94;;;33.93;20.83
50268;BME280;36153;50.960;6.220;2022-09-01T12:43:36;100866.09;;;34.53;20.88
50268;BME280;36153;50.960;6.220;2022-09-01T12:46:40;100871.47;;;34.20;19.54
50268;BME280;36153;50.960;6.220;2022-09-01T12:49:43;100859.91;;;33.52;21.06
50268;BME280;36153;50.960;6.220;2022-09-01T12:52:46;100861.38;;;33.79;19.64
50268;BME280;36153;50.960;6.220;2022-09-01T12:56:26;100848.59;;;33.58;20.36
50268;BME280;36153;50.960;6.220;2022-09-01T12:59:30;100858.94;;;32.83;22.07
50268;BME280;36153;50.960;6.220;2022-09-01T13:02:35;100855.84;;;33.46;20.91
50268;BME280;36153;50.960;6.220;2022-09-01T13:05:41;100849.38;;;34.38;20.60
50268;BME280;36153;50.960;6.220;2022-09-01T13:08:42;100846.53;;;34.28;19.67
50268;BME280;36153;50.960;6.220;2022-09-01T13:11:43;100839.38;;;32.68;21.31
50268;BME280;36153;50.960;6.220;2022-09-01T13:14:47;100840.59;;;32.16;22.53
50268;BME280;36153;50.960;6.220;2022-09-01T13:17:47;100840.31;;;31.71;22.66
50268;BME280;36153;50.960;6.220;2022-09-01T13:20:48;100834.81;;;31.59;23.91
50268;BME280;36153;50.960;6.220;2022-09-01T13:23:50;100832.19;;;32.80;22.99
50268;BME280;36153;50.960;6.220;2022-09-01T13:26:51;100825.38;;;32.28;21.95
50268;BME280;36153;50.960;6.220;2022-09-01T13:29:55;100827.16;;;32.03;22.43
50268;BME280;36153;50.960;6.220;2022-09-01T13:32:56;100825.25;;;31.92;23.16
50268;BME280;36153;50.960;6.220;2022-09-01T13:35:56;100821.53;;;31.82;23.50
50268;BME280;36153;50.960;6.220;2022-09-01T13:38:57;100825.38;;;31.28;23.60
50268;BME280;36153;50.960;6.220;2022-09-01T13:41:57;100816.53;;;31.00;24.39
50268;BME280;36153;50.960;6.220;2022-09-01T13:44:57;100817.09;;;31.05;24.62
50268;BME280;36153;50.960;6.220;2022-09-01T13:47:58;100811.75;;;31.81;23.06
50268;BME280;36153;50.960;6.220;2022-09-01T13:50:59;100810.16;;;32.87;22.11
50268;BME280;36153;50.960;6.220;2022-09-01T13:54:00;100802.19;;;32.74;22.62
50268;BME280;36153;50.960;6.220;2022-09-01T13:57:00;100808.00;;;32.32;23.34
50268;BME280;36153;50.960;6.220;2022-09-01T14:00:00;100805.41;;;32.06;22.42
50268;BME280;36153;50.960;6.220;2022-09-01T14:03:04;100797.91;;;31.61;23.40
50268;BME280;36153;50.960;6.220;2022-09-01T14:06:06;100799.84;;;32.21;22.74
50268;BME280;36153;50.960;6.220;2022-09-01T14:09:06;100794.53;;;32.32;22.47
50268;BME280;36153;50.960;6.220;2022-09-01T14:12:07;100779.44;;;33.23;21.68
50268;BME280;36153;50.960;6.220;2022-09-01T14:15:09;100788.84;;;33.74;20.67
50268;BME280;36153;50.960;6.220;2022-09-01T14:18:09;100782.97;;;33.58;20.83
50268;BME280;36153;50.960;6.220;2022-09-01T14:21:14;100778.78;;;34.20;20.66
50268;BME280;36153;50.960;6.220;2022-09-01T14:24:15;100784.72;;;34.46;20.30
50268;BME280;36153;50.960;6.220;2022-09-01T14:27:20;100773.06;;;34.88;19.57
50268;BME280;36153;50.960;6.220;2022-09-01T14:30:25;100767.16;;;34.62;19.90
50268;BME280;36153;50.960;6.220;2022-09-01T14:33:26;100762.28;;;34.98;19.31
50268;BME280;36153;50.960;6.220;2022-09-01T14:36:27;100765.03;;;33.79;20.17
50268;BME280;36153;50.960;6.220;2022-09-01T14:39:28;100768.13;;;32.95;21.17
50268;BME280;36153;50.960;6.220;2022-09-01T14:42:29;100761.13;;;33.61;21.32
50268;BME280;36153;50.960;6.220;2022-09-01T14:45:30;100760.88;;;33.64;21.07
50268;BME280;36153;50.960;6.220;2022-09-01T14:48:32;100759.44;;;33.37;21.08
50268;BME280;36153;50.960;6.220;2022-09-01T14:51:33;100757.84;;;33.46;21.67
50268;BME280;36153;50.960;6.220;2022-09-01T14:54:39;100752.53;;;33.56;20.93
50268;BME280;36153;50.960;6.220;2022-09-01T14:57:41;100749.66;;;33.91;20.90
50268;BME280;36153;50.960;6.220;2022-09-01T15:00:41;100750.19;;;34.17;20.09
50268;BME280;36153;50.960;6.220;2022-09-01T15:03:43;100745.16;;;34.45;20.86
50268;BME280;36153;50.960;6.220;2022-09-01T15:06:45;100741.31;;;34.27;21.32
50268;BME280;36153;50.960;6.220;2022-09-01T15:09:45;100745.78;;;34.59;19.96
50268;BME280;36153;50.960;6.220;2022-09-01T15:12:46;100739.13;;;33.88;20.71
50268;BME280;36153;50.960;6.220;2022-09-01T15:15:48;100733.44;;;33.02;21.16
50268;BME280;36153;50.960;6.220;2022-09-01T15:18:49;100740.53;;;32.33;21.83
50268;BME280;36153;50.960;6.220;2022-09-01T15:21:50;100735.22;;;31.96;22.96
50268;BME280;36153;50.960;6.220;2022-09-01T15:24:50;100734.03;;;31.76;22.53
50268;BME280;36153;50.960;6.220;2022-09-01T15:27:51;100732.91;;;31.79;23.24
50268;BME280;36153;50.960;6.220;2022-09-01T15:30:52;100731.16;;;31.91;23.73
50268;BME280;36153;50.960;6.220;2022-09-01T15:33:54;100724.38;;;33.14;22.54
50268;BME280;36153;50.960;6.220;2022-09-01T15:36:55;100731.19;;;33.64;21.43
50268;BME280;36153;50.960;6.220;2022-09-01T15:39:55;100727.53;;;33.54;21.71
50268;BME280;36153;50.960;6.220;2022-09-01T15:42:56;100730.00;;;33.45;21.77
50268;BME280;36153;50.960;6.220;2022-09-01T15:45:58;100718.25;;;33.35;21.94
50268;BME280;36153;50.960;6.220;2022-09-01T15:49:00;100719.22;;;33.45;20.76
50268;BME280;36153;50.960;6.220;2022-09-01T15:52:00;100721.66;;;33.37;21.69
50268;BME280;36153;50.960;6.220;2022-09-01T15:55:01;100715.28;;;33.49;21.01
50268;BME280;36153;50.960;6.220;2022-09-01T15:58:02;100713.50;;;33.71;21.23
50268;BME280;36153;50.960;6.220;2022-09-01T16:01:02;100711.84;;;33.91;21.57
50268;BME280;36153;50.960;6.220;2022-09-01T16:04:06;100705.28;;;34.05;21.09
50268;BME280;36153;50.960;6.220;2022-09-01T16:07:07;100700.97;;;33.81;21.51
50268;BME280;36153;50.960;6.220;2022-09-01T16:10:09;100706.41;;;34.02;21.61
50268;BME280;36153;50.960;6.220;2022-09-01T16:13:13;100696.84;;;34.52;21.44
50268;BME280;36153;50.960;6.220;2022-09-01T16:22:54;100700.81;;;33.28;21.80
50268;BME280;36153;50.960;6.220;2022-09-01T16:25:57;100704.94;;;32.53;23.01
50268;BME280;36153;50.960;6.220;2022-09-01T16:28:59;100695.63;;;32.10;24.01
50268;BME280;36153;50.960;6.220;2022-09-01T16:32:01;100699.22;;;31.49;24.47
50268;BME280;36153;50.960;6.220;2022-09-01T16:35:02;100696.28;;;31.28;25.51
50268;BME280;36153;50.960;6.220;2022-09-01T16:38:16;100696.50;;;30.99;24.89
50268;BME280;36153;50.960;6.220;2022-09-01T16:41:46;100693.97;;;30.85;25.57
50268;BME280;36153;50.960;6.220;2022-09-01T16:44:57;100691.06;;;30.88;25.80
50268;BME280;36153;50.960;6.220;2022-09-01T16:48:30;100688.22;;;31.28;25.26
50268;BME280;36153;50.960;6.220;2022-09-01T16:51:46;100678.75;;;32.66;23.49
50268;BME280;36153;50.960;6.220;2022-09-01T16:58:18;100685.28;;;33.75;22.33